sensor_id;sensor_type;location;lat;lon;timestamp;P1;durP1;ratioP1;P2;durP2;ratioP2
57395;SDS011;43222;52.912;6.940;2023-02-28T00:01:18;12.57;;;4.80;;
57395;SDS011;43222;52.912;6.940;2023-02-28T00:03:45;14.55;;;5.00;;
57395;SDS011;43222;52.912;6.940;2023-02-28T00:06:11;11.65;;;4.70;;
57395;SDS011;43222;52.912;6.940;2023-02-28T00:08:37;12.10;;;4.53;;
57395;SDS011;43222;52.912;6.940;2023-02-28T00:11:04;10.15;;;4.75;;
57395;SDS011;43222;52.912;6.940;2023-02-28T00:13:31;10.60;;;4.43;;
57395;SDS011;43222;52.912;6.940;2023-02-28T00:16:11;12.20;;;4.90;;
57395;SDS011;43222;52.912;6.940;2023-02-28T00:18:38;16.25;;;4.80;;
57395;SDS011;43222;52.912;6.940;2023-02-28T00:21:05;10.45;;;4.63;;
57395;SDS011;43222;52.912;6.940;2023-02-28T00:23:31;14.70;;;5.28;;
57395;SDS011;43222;52.912;6.940;2023-02-28T00:25:57;12.68;;;5.15;;
57395;SDS011;43222;52.912;6.940;2023-02-28T00:28:23;10.98;;;4.85;;
57395;SDS011;43222;52.912;6.940;2023-02-28T00:30:49;14.27;;;4.95;;
57395;SDS011;43222;52.912;6.940;2023-02-28T00:33:16;12.38;;;5.38;;
57395;SDS011;43222;52.912;6.940;2023-02-28T00:35:42;11.55;;;5.45;;
57395;SDS011;43222;52.912;6.940;2023-02-28T00:38:11;14.77;;;5.07;;
57395;SDS011;43222;52.912;6.940;2023-02-28T00:40:37;13.20;;;4.88;;
57395;SDS011;43222;52.912;6.940;2023-02-28T00:43:03;14.27;;;5.47;;
57395;SDS011;43222;52.912;6.940;2023-02-28T00:45:29;12.50;;;4.88;;
57395;SDS011;43222;52.912;6.940;2023-02-28T00:47:55;14.60;;;5.55;;
57395;SDS011;43222;52.912;6.940;2023-02-28T00:50:21;15.00;;;5.60;;
57395;SDS011;43222;52.912;6.940;2023-02-28T00:52:47;14.20;;;5.53;;
57395;SDS011;43222;52.912;6.940;2023-02-28T00:55:14;11.13;;;5.47;;
57395;SDS011;43222;52.912;6.940;2023-02-28T00:57:40;13.40;;;5.60;;
57395;SDS011;43222;52.912;6.940;2023-02-28T01:00:07;12.63;;;5.43;;
57395;SDS011;43222;52.912;6.940;2023-02-28T01:02:33;10.35;;;5.32;;
57395;SDS011;43222;52.912;6.940;2023-02-28T01:04:59;15.43;;;5.85;;
57395;SDS011;43222;52.912;6.940;2023-02-28T01:07:25;11.77;;;5.20;;
57395;SDS011;43222;52.912;6.940;2023-02-28T01:09:51;14.80;;;6.03;;
57395;SDS011;43222;52.912;6.940;2023-02-28T01:12:17;11.15;;;5.80;;
57395;SDS011;43222;52.912;6.940;2023-02-28T01:14:43;10.63;;;5.97;;
57395;SDS011;43222;52.912;6.940;2023-02-28T01:17:10;14.15;;;6.10;;
57395;SDS011;43222;52.912;6.940;2023-02-28T01:19:36;14.65;;;5.95;;
57395;SDS011;43222;52.912;6.940;2023-02-28T01:22:03;14.93;;;5.47;;
57395;SDS011;43222;52.912;6.940;2023-02-28T01:24:29;16.52;;;6.07;;
57395;SDS011;43222;52.912;6.940;2023-02-28T01:26:55;11.25;;;5.68;;
57395;SDS011;43222;52.912;6.940;2023-02-28T01:29:21;13.77;;;5.53;;
57395;SDS011;43222;52.912;6.940;2023-02-28T01:31:47;13.23;;;6.38;;
57395;SDS011;43222;52.912;6.940;2023-02-28T01:34:13;14.95;;;5.90;;
57395;SDS011;43222;52.912;6.940;2023-02-28T01:36:40;14.63;;;6.05;;
57395;SDS011;43222;52.912;6.940;2023-02-28T01:39:06;12.48;;;5.65;;
57395;SDS011;43222;52.912;6.940;2023-02-28T01:41:32;12.95;;;6.32;;
57395;SDS011;43222;52.912;6.940;2023-02-28T01:44:00;12.95;;;5.65;;
57395;SDS011;43222;52.912;6.940;2023-02-28T01:52:07;9.40;;;4.72;;
57395;SDS011;43222;52.912;6.940;2023-02-28T01:54:19;12.70;;;4.85;;
57395;SDS011;43222;52.912;6.940;2023-02-28T01:56:47;15.30;;;5.25;;
57395;SDS011;43222;52.912;6.940;2023-02-28T01:59:18;14.98;;;5.68;;
57395;SDS011;43222;52.912;6.940;2023-02-28T02:01:47;12.02;;;5.28;;
57395;SDS011;43222;52.912;6.940;2023-02-28T02:04:14;11.57;;;5.35;;
57395;SDS011;43222;52.912;6.940;2023-02-28T02:06:42;12.07;;;5.78;;
57395;SDS011;43222;52.912;6.940;2023-02-28T02:09:09;10.75;;;6.35;;
57395;SDS011;43222;52.912;6.940;2023-02-28T02:11:35;13.77;;;6.25;;
57395;SDS011;43222;52.912;6.940;2023-02-28T02:14:06;13.88;;;6.20;;
57395;SDS011;43222;52.912;6.940;2023-02-28T02:19:25;15.15;;;5.97;;
57395;SDS011;43222;52.912;6.940;2023-02-28T02:34:42;10.18;;;5.95;;
57395;SDS011;43222;52.912;6.940;2023-02-28T02:42:39;16.35;;;6.45;;
57395;SDS011;43222;52.912;6.940;2023-02-28T02:45:12;12.60;;;6.05;;
57395;SDS011;43222;52.912;6.940;2023-02-28T02:47:40;13.23;;;6.72;;
57395;SDS011;43222;52.912;6.940;2023-02-28T02:50:08;15.55;;;7.03;;
57395;SDS011;43222;52.912;6.940;2023-02-28T02:52:38;15.07;;;6.88;;
57395;SDS011;43222;52.912;6.940;2023-02-28T02:55:06;14.65;;;7.03;;
57395;SDS011;43222;52.912;6.940;2023-02-28T03:00:11;13.88;;;7.20;;
57395;SDS011;43222;52.912;6.940;2023-02-28T03:02:37;14.55;;;6.93;;
57395;SDS011;43222;52.912;6.940;2023-02-28T03:05:08;12.63;;;7.28;;
57395;SDS011;43222;52.912;6.940;2023-02-28T03:07:38;14.57;;;6.57;;
57395;SDS011;43222;52.912;6.940;2023-02-28T03:10:25;14.75;;;7.30;;
57395;SDS011;43222;52.912;6.940;2023-02-28T03:12:52;15.75;;;7.05;;
57395;SDS011;43222;52.912;6.940;2023-02-28T03:15:32;13.00;;;6.93;;
57395;SDS011;43222;52.912;6.940;2023-02-28T03:18:08;14.38;;;7.25;;
57395;SDS011;43222;52.912;6.940;2023-02-28T03:20:56;15.18;;;7.35;;
57395;SDS011;43222;52.912;6.940;2023-02-28T03:23:30;15.52;;;7.53;;
57395;SDS011;43222;52.912;6.940;2023-02-28T03:25:59;12.57;;;7.18;;
57395;SDS011;43222;52.912;6.940;2023-02-28T03:28:30;13.35;;;7.25;;
57395;SDS011;43222;52.912;6.940;2023-02-28T03:31:03;12.98;;;7.05;;
57395;SDS011;43222;52.912;6.940;2023-02-28T03:34:08;12.05;;;7.10;;
57395;SDS011;43222;52.912;6.940;2023-02-28T03:36:27;14.57;;;7.57;;
57395;SDS011;43222;52.912;6.940;2023-02-28T03:38:57;14.60;;;7.68;;
57395;SDS011;43222;52.912;6.940;2023-02-28T03:41:38;20.50;;;8.43;;
57395;SDS011;43222;52.912;6.940;2023-02-28T03:44:07;13.55;;;8.10;;
57395;SDS011;43222;52.912;6.940;2023-02-28T03:46:40;16.38;;;8.70;;
57395;SDS011;43222;52.912;6.940;2023-02-28T03:49:18;12.40;;;8.02;;
57395;SDS011;43222;52.912;6.940;2023-02-28T03:51:46;13.05;;;8.10;;
57395;SDS011;43222;52.912;6.940;2023-02-28T03:54:13;15.15;;;8.88;;
57395;SDS011;43222;52.912;6.940;2023-02-28T03:56:51;14.70;;;8.25;;
57395;SDS011;43222;52.912;6.940;2023-02-28T04:01:45;16.90;;;9.32;;
57395;SDS011;43222;52.912;6.940;2023-02-28T04:04:13;18.42;;;9.25;;
57395;SDS011;43222;52.912;6.940;2023-02-28T04:06:40;18.48;;;7.85;;
57395;SDS011;43222;52.912;6.940;2023-02-28T04:09:06;16.05;;;8.65;;
57395;SDS011;43222;52.912;6.940;2023-02-28T04:11:44;17.35;;;8.52;;
57395;SDS011;43222;52.912;6.940;2023-02-28T04:14:10;14.75;;;8.38;;
57395;SDS011;43222;52.912;6.940;2023-02-28T04:16:38;14.55;;;8.38;;
57395;SDS011;43222;52.912;6.940;2023-02-28T04:19:04;15.63;;;7.97;;
57395;SDS011;43222;52.912;6.940;2023-02-28T04:21:50;16.20;;;8.52;;
57395;SDS011;43222;52.912;6.940;2023-02-28T04:24:17;17.10;;;8.68;;
57395;SDS011;43222;52.912;6.940;2023-02-28T04:26:45;17.35;;;8.60;;
57395;SDS011;43222;52.912;6.940;2023-02-28T04:29:13;22.15;;;9.18;;
57395;SDS011;43222;52.912;6.940;2023-02-28T04:31:39;19.20;;;11.20;;
57395;SDS011;43222;52.912;6.940;2023-02-28T04:34:06;16.27;;;9.70;;
57395;SDS011;43222;52.912;6.940;2023-02-28T04:36:32;14.40;;;10.93;;
57395;SDS011;43222;52.912;6.940;2023-02-28T04:38:58;18.75;;;10.45;;
57395;SDS011;43222;52.912;6.940;2023-02-28T04:41:24;17.45;;;10.30;;
57395;SDS011;43222;52.912;6.940;2023-02-28T04:43:51;14.93;;;9.60;;
57395;SDS011;43222;52.912;6.940;2023-02-28T04:46:18;20.05;;;9.90;;
57395;SDS011;43222;52.912;6.940;2023-02-28T04:48:44;18.83;;;10.25;;
57395;SDS011;43222;52.912;6.940;2023-02-28T04:51:13;17.55;;;9.80;;
57395;SDS011;43222;52.912;6.940;2023-02-28T04:53:39;18.83;;;10.32;;
57395;SDS011;43222;52.912;6.940;2023-02-28T04:56:06;16.13;;;9.32;;
57395;SDS011;43222;52.912;6.940;2023-02-28T04:58:33;20.23;;;10.00;;
57395;SDS011;43222;52.912;6.940;2023-02-28T05:01:06;17.67;;;9.38;;
57395;SDS011;43222;52.912;6.940;2023-02-28T05:03:40;15.43;;;9.25;;
57395;SDS011;43222;52.912;6.940;2023-02-28T05:06:07;15.05;;;8.15;;
57395;SDS011;43222;52.912;6.940;2023-02-28T05:08:33;15.25;;;8.75;;
57395;SDS011;43222;52.912;6.940;2023-02-28T05:10:59;18.70;;;9.10;;
57395;SDS011;43222;52.912;6.940;2023-02-28T05:13:26;18.00;;;8.50;;
57395;SDS011;43222;52.912;6.940;2023-02-28T05:15:52;16.55;;;8.10;;
57395;SDS011;43222;52.912;6.940;2023-02-28T05:18:19;16.55;;;8.73;;
57395;SDS011;43222;52.912;6.940;2023-02-28T05:20:45;14.85;;;8.82;;
57395;SDS011;43222;52.912;6.940;2023-02-28T05:23:11;15.10;;;9.98;;
57395;SDS011;43222;52.912;6.940;2023-02-28T05:25:38;13.88;;;9.75;;
57395;SDS011;43222;52.912;6.940;2023-02-28T05:28:04;18.50;;;10.18;;
57395;SDS011;43222;52.912;6.940;2023-02-28T05:30:31;16.98;;;9.73;;
57395;SDS011;43222;52.912;6.940;2023-02-28T05:32:57;15.02;;;9.35;;
57395;SDS011;43222;52.912;6.940;2023-02-28T05:35:23;19.33;;;10.88;;
57395;SDS011;43222;52.912;6.940;2023-02-28T05:37:49;21.05;;;10.80;;
57395;SDS011;43222;52.912;6.940;2023-02-28T05:40:16;22.55;;;11.38;;
57395;SDS011;43222;52.912;6.940;2023-02-28T05:42:42;18.75;;;10.15;;
57395;SDS011;43222;52.912;6.940;2023-02-28T05:45:08;16.50;;;10.25;;
57395;SDS011;43222;52.912;6.940;2023-02-28T05:47:35;17.27;;;10.10;;
57395;SDS011;43222;52.912;6.940;2023-02-28T05:50:01;18.50;;;9.95;;
57395;SDS011;43222;52.912;6.940;2023-02-28T05:52:28;16.52;;;10.23;;
57395;SDS011;43222;52.912;6.940;2023-02-28T05:54:55;15.07;;;9.48;;
57395;SDS011;43222;52.912;6.940;2023-02-28T05:57:21;17.50;;;9.68;;
57395;SDS011;43222;52.912;6.940;2023-02-28T05:59:47;17.17;;;10.10;;
57395;SDS011;43222;52.912;6.940;2023-02-28T06:02:14;19.70;;;11.60;;
57395;SDS011;43222;52.912;6.940;2023-02-28T06:04:41;24.08;;;13.77;;
57395;SDS011;43222;52.912;6.940;2023-02-28T06:07:08;21.52;;;13.18;;
57395;SDS011;43222;52.912;6.940;2023-02-28T06:09:34;24.00;;;13.68;;
57395;SDS011;43222;52.912;6.940;2023-02-28T06:12:01;19.75;;;12.55;;
57395;SDS011;43222;52.912;6.940;2023-02-28T06:14:28;24.70;;;11.55;;
57395;SDS011;43222;52.912;6.940;2023-02-28T06:16:56;20.92;;;11.85;;
57395;SDS011;43222;52.912;6.940;2023-02-28T06:19:22;19.75;;;11.60;;
57395;SDS011;43222;52.912;6.940;2023-02-28T06:21:50;20.25;;;10.85;;
57395;SDS011;43222;52.912;6.940;2023-02-28T06:24:20;18.17;;;10.93;;
57395;SDS011;43222;52.912;6.940;2023-02-28T06:26:46;18.40;;;11.55;;
57395;SDS011;43222;52.912;6.940;2023-02-28T06:29:13;19.55;;;10.68;;
57395;SDS011;43222;52.912;6.940;2023-02-28T06:31:46;17.38;;;10.98;;
57395;SDS011;43222;52.912;6.940;2023-02-28T06:34:13;20.70;;;11.23;;
57395;SDS011;43222;52.912;6.940;2023-02-28T06:36:39;21.40;;;11.25;;
57395;SDS011;43222;52.912;6.940;2023-02-28T06:39:06;20.38;;;11.80;;
57395;SDS011;43222;52.912;6.940;2023-02-28T06:41:33;23.75;;;11.70;;
57395;SDS011;43222;52.912;6.940;2023-02-28T06:44:05;20.58;;;11.70;;
57395;SDS011;43222;52.912;6.940;2023-02-28T06:46:34;20.45;;;11.82;;
57395;SDS011;43222;52.912;6.940;2023-02-28T06:49:00;17.95;;;11.55;;
57395;SDS011;43222;52.912;6.940;2023-02-28T06:51:26;18.75;;;11.75;;
57395;SDS011;43222;52.912;6.940;2023-02-28T06:53:52;20.45;;;12.52;;
57395;SDS011;43222;52.912;6.940;2023-02-28T06:56:18;19.35;;;12.43;;
57395;SDS011;43222;52.912;6.940;2023-02-28T06:58:48;31.58;;;19.50;;
57395;SDS011;43222;52.912;6.940;2023-02-28T07:01:14;41.08;;;25.60;;
57395;SDS011;43222;52.912;6.940;2023-02-28T07:03:41;36.47;;;20.60;;
57395;SDS011;43222;52.912;6.940;2023-02-28T07:06:07;24.40;;;15.15;;
57395;SDS011;43222;52.912;6.940;2023-02-28T07:08:33;22.50;;;13.35;;
57395;SDS011;43222;52.912;6.940;2023-02-28T07:11:00;21.02;;;12.73;;
57395;SDS011;43222;52.912;6.940;2023-02-28T07:13:27;18.85;;;12.70;;
57395;SDS011;43222;52.912;6.940;2023-02-28T07:15:57;17.50;;;12.13;;
57395;SDS011;43222;52.912;6.940;2023-02-28T07:18:23;19.58;;;11.55;;
57395;SDS011;43222;52.912;6.940;2023-02-28T07:20:49;19.20;;;12.52;;
57395;SDS011;43222;52.912;6.940;2023-02-28T07:23:16;18.25;;;11.43;;
57395;SDS011;43222;52.912;6.940;2023-02-28T07:25:42;17.83;;;11.85;;
57395;SDS011;43222;52.912;6.940;2023-02-28T07:28:08;15.40;;;11.43;;
57395;SDS011;43222;52.912;6.940;2023-02-28T07:30:34;17.77;;;11.20;;
57395;SDS011;43222;52.912;6.940;2023-02-28T07:33:00;14.07;;;9.07;;
57395;SDS011;43222;52.912;6.940;2023-02-28T07:35:26;16.40;;;11.05;;
57395;SDS011;43222;52.912;6.940;2023-02-28T07:37:52;15.40;;;10.93;;
57395;SDS011;43222;52.912;6.940;2023-02-28T07:40:19;13.70;;;9.98;;
57395;SDS011;43222;52.912;6.940;2023-02-28T07:42:45;16.50;;;10.15;;
57395;SDS011;43222;52.912;6.940;2023-02-28T07:45:11;18.23;;;11.35;;
57395;SDS011;43222;52.912;6.940;2023-02-28T07:47:46;15.05;;;10.50;;
57395;SDS011;43222;52.912;6.940;2023-02-28T07:50:13;16.77;;;9.38;;
57395;SDS011;43222;52.912;6.940;2023-02-28T07:52:40;15.18;;;10.05;;
57395;SDS011;43222;52.912;6.940;2023-02-28T07:55:07;15.85;;;9.98;;
57395;SDS011;43222;52.912;6.940;2023-02-28T07:57:33;16.90;;;10.13;;
57395;SDS011;43222;52.912;6.940;2023-02-28T07:59:59;15.18;;;10.55;;
57395;SDS011;43222;52.912;6.940;2023-02-28T08:02:26;17.35;;;10.20;;
57395;SDS011;43222;52.912;6.940;2023-02-28T08:04:52;17.98;;;10.52;;
57395;SDS011;43222;52.912;6.940;2023-02-28T08:07:18;17.75;;;10.15;;
57395;SDS011;43222;52.912;6.940;2023-02-28T08:09:44;15.18;;;11.02;;
57395;SDS011;43222;52.912;6.940;2023-02-28T08:12:11;16.50;;;10.48;;
57395;SDS011;43222;52.912;6.940;2023-02-28T08:14:37;15.65;;;11.48;;
57395;SDS011;43222;52.912;6.940;2023-02-28T08:17:04;19.45;;;11.15;;
57395;SDS011;43222;52.912;6.940;2023-02-28T08:19:30;19.52;;;12.13;;
57395;SDS011;43222;52.912;6.940;2023-02-28T08:21:56;19.67;;;10.95;;
57395;SDS011;43222;52.912;6.940;2023-02-28T08:24:23;19.65;;;12.10;;
57395;SDS011;43222;52.912;6.940;2023-02-28T08:26:49;22.17;;;14.23;;
57395;SDS011;43222;52.912;6.940;2023-02-28T08:29:15;16.63;;;11.70;;
57395;SDS011;43222;52.912;6.940;2023-02-28T08:31:41;17.67;;;11.88;;
57395;SDS011;43222;52.912;6.940;2023-02-28T08:34:11;17.63;;;11.52;;
57395;SDS011;43222;52.912;6.940;2023-02-28T08:36:38;17.33;;;11.32;;
57395;SDS011;43222;52.912;6.940;2023-02-28T08:39:04;16.70;;;10.77;;
57395;SDS011;43222;52.912;6.940;2023-02-28T08:41:31;16.77;;;10.57;;
57395;SDS011;43222;52.912;6.940;2023-02-28T08:43:57;18.35;;;11.18;;
57395;SDS011;43222;52.912;6.940;2023-02-28T08:46:23;18.05;;;10.60;;
57395;SDS011;43222;52.912;6.940;2023-02-28T08:48:53;18.25;;;10.40;;
57395;SDS011;43222;52.912;6.940;2023-02-28T08:51:20;16.30;;;10.57;;
57395;SDS011;43222;52.912;6.940;2023-02-28T08:53:51;16.80;;;11.23;;
57395;SDS011;43222;52.912;6.940;2023-02-28T08:56:18;16.95;;;11.60;;
57395;SDS011;43222;52.912;6.940;2023-02-28T08:58:44;13.88;;;9.82;;
57395;SDS011;43222;52.912;6.940;2023-02-28T09:01:12;17.08;;;10.18;;
57395;SDS011;43222;52.912;6.940;2023-02-28T09:03:38;15.90;;;10.90;;
57395;SDS011;43222;52.912;6.940;2023-02-28T09:06:06;15.10;;;10.80;;
57395;SDS011;43222;52.912;6.940;2023-02-28T09:08:32;14.50;;;11.00;;
57395;SDS011;43222;52.912;6.940;2023-02-28T09:10:58;18.00;;;11.75;;
57395;SDS011;43222;52.912;6.940;2023-02-28T09:13:25;13.07;;;10.60;;
57395;SDS011;43222;52.912;6.940;2023-02-28T09:15:51;18.10;;;11.73;;
57395;SDS011;43222;52.912;6.940;2023-02-28T09:18:17;18.80;;;11.75;;
57395;SDS011;43222;52.912;6.940;2023-02-28T09:20:43;14.23;;;10.48;;
57395;SDS011;43222;52.912;6.940;2023-02-28T09:23:10;16.50;;;11.23;;
57395;SDS011;43222;52.912;6.940;2023-02-28T09:25:37;15.60;;;10.73;;
57395;SDS011;43222;52.912;6.940;2023-02-28T09:28:03;15.57;;;9.88;;
57395;SDS011;43222;52.912;6.940;2023-02-28T09:30:30;13.45;;;9.82;;
57395;SDS011;43222;52.912;6.940;2023-02-28T09:32:56;15.15;;;9.68;;
57395;SDS011;43222;52.912;6.940;2023-02-28T09:35:23;14.02;;;9.75;;
57395;SDS011;43222;52.912;6.940;2023-02-28T09:37:52;14.15;;;9.48;;
57395;SDS011;43222;52.912;6.940;2023-02-28T09:40:22;13.35;;;9.38;;
57395;SDS011;43222;52.912;6.940;2023-02-28T09:45:22;13.68;;;7.97;;
57395;SDS011;43222;52.912;6.940;2023-02-28T09:47:49;11.57;;;8.23;;
57395;SDS011;43222;52.912;6.940;2023-02-28T09:50:51;12.93;;;7.43;;
57395;SDS011;43222;52.912;6.940;2023-02-28T09:53:19;12.65;;;7.15;;
57395;SDS011;43222;52.912;6.940;2023-02-28T09:55:47;12.68;;;6.55;;
57395;SDS011;43222;52.912;6.940;2023-02-28T09:58:34;11.15;;;6.53;;
57395;SDS011;43222;52.912;6.940;2023-02-28T10:01:05;10.77;;;5.50;;
57395;SDS011;43222;52.912;6.940;2023-02-28T10:03:35;10.88;;;5.95;;
57395;SDS011;43222;52.912;6.940;2023-02-28T10:08:30;8.43;;;4.95;;
57395;SDS011;43222;52.912;6.940;2023-02-28T10:10:58;8.77;;;4.63;;
57395;SDS011;43222;52.912;6.940;2023-02-28T10:13:32;6.82;;;3.63;;
57395;SDS011;43222;52.912;6.940;2023-02-28T10:16:01;8.82;;;4.90;;
57395;SDS011;43222;52.912;6.940;2023-02-28T10:18:29;8.52;;;5.38;;
57395;SDS011;43222;52.912;6.940;2023-02-28T10:20:56;9.43;;;5.47;;
57395;SDS011;43222;52.912;6.940;2023-02-28T10:23:24;10.02;;;5.60;;
57395;SDS011;43222;52.912;6.940;2023-02-28T10:26:04;8.68;;;4.55;;
57395;SDS011;43222;52.912;6.940;2023-02-28T10:28:34;7.47;;;4.90;;
57395;SDS011;43222;52.912;6.940;2023-02-28T10:31:00;8.00;;;4.88;;
57395;SDS011;43222;52.912;6.940;2023-02-28T10:33:33;10.82;;;5.70;;
57395;SDS011;43222;52.912;6.940;2023-02-28T10:35:59;8.65;;;5.10;;
57395;SDS011;43222;52.912;6.940;2023-02-28T10:38:28;8.43;;;4.70;;
57395;SDS011;43222;52.912;6.940;2023-02-28T10:41:04;8.18;;;4.72;;
57395;SDS011;43222;52.912;6.940;2023-02-28T10:43:31;10.98;;;5.10;;
57395;SDS011;43222;52.912;6.940;2023-02-28T10:48:36;9.98;;;4.97;;
57395;SDS011;43222;52.912;6.940;2023-02-28T10:51:04;9.57;;;4.53;;
57395;SDS011;43222;52.912;6.940;2023-02-28T10:53:45;8.30;;;5.05;;
57395;SDS011;43222;52.912;6.940;2023-02-28T11:01:45;11.13;;;4.93;;
57395;SDS011;43222;52.912;6.940;2023-02-28T11:07:04;7.75;;;4.55;;
57395;SDS011;43222;52.912;6.940;2023-02-28T11:11:57;8.93;;;4.93;;
57395;SDS011;43222;52.912;6.940;2023-02-28T11:14:27;7.13;;;4.00;;
57395;SDS011;43222;52.912;6.940;2023-02-28T11:16:54;6.75;;;3.78;;
57395;SDS011;43222;52.912;6.940;2023-02-28T11:19:23;7.55;;;4.18;;
57395;SDS011;43222;52.912;6.940;2023-02-28T11:21:55;9.90;;;4.47;;
57395;SDS011;43222;52.912;6.940;2023-02-28T11:24:30;10.52;;;4.82;;
57395;SDS011;43222;52.912;6.940;2023-02-28T11:26:57;7.63;;;3.65;;
57395;SDS011;43222;52.912;6.940;2023-02-28T11:29:27;7.53;;;3.65;;
57395;SDS011;43222;52.912;6.940;2023-02-28T11:32:00;7.53;;;3.45;;
57395;SDS011;43222;52.912;6.940;2023-02-28T11:34:27;7.80;;;3.45;;
57395;SDS011;43222;52.912;6.940;2023-02-28T11:36:54;7.50;;;3.72;;
57395;SDS011;43222;52.912;6.940;2023-02-28T11:39:22;6.95;;;3.72;;
57395;SDS011;43222;52.912;6.940;2023-02-28T11:46:52;7.28;;;3.00;;
57395;SDS011;43222;52.912;6.940;2023-02-28T11:49:24;7.38;;;3.70;;
57395;SDS011;43222;52.912;6.940;2023-02-28T11:57:09;6.63;;;3.20;;
57395;SDS011;43222;52.912;6.940;2023-02-28T12:02:53;7.70;;;3.28;;
57395;SDS011;43222;52.912;6.940;2023-02-28T12:08:05;5.93;;;3.05;;
57395;SDS011;43222;52.912;6.940;2023-02-28T12:13:21;6.97;;;3.30;;
57395;SDS011;43222;52.912;6.940;2023-02-28T12:28:59;6.22;;;3.05;;
57395;SDS011;43222;52.912;6.940;2023-02-28T12:31:29;5.88;;;3.03;;
57395;SDS011;43222;52.912;6.940;2023-02-28T12:33:58;6.53;;;3.20;;
57395;SDS011;43222;52.912;6.940;2023-02-28T12:36:25;7.80;;;3.20;;
57395;SDS011;43222;52.912;6.940;2023-02-28T12:41:22;6.38;;;2.90;;
57395;SDS011;43222;52.912;6.940;2023-02-28T12:43:52;6.50;;;3.33;;
57395;SDS011;43222;52.912;6.940;2023-02-28T12:48:48;6.00;;;2.78;;
57395;SDS011;43222;52.912;6.940;2023-02-28T12:51:16;5.85;;;2.55;;
57395;SDS011;43222;52.912;6.940;2023-02-28T12:58:58;6.43;;;2.90;;
57395;SDS011;43222;52.912;6.940;2023-02-28T13:01:31;5.90;;;2.63;;
57395;SDS011;43222;52.912;6.940;2023-02-28T13:09:05;6.10;;;2.85;;
57395;SDS011;43222;52.912;6.940;2023-02-28T13:11:41;5.30;;;2.42;;
57395;SDS011;43222;52.912;6.940;2023-02-28T13:14:18;6.50;;;2.75;;
57395;SDS011;43222;52.912;6.940;2023-02-28T13:19:30;5.97;;;2.70;;
57395;SDS011;43222;52.912;6.940;2023-02-28T13:21:57;5.57;;;2.70;;
57395;SDS011;43222;52.912;6.940;2023-02-28T13:29:39;6.70;;;2.45;;
57395;SDS011;43222;52.912;6.940;2023-02-28T13:34:47;5.32;;;2.55;;
57395;SDS011;43222;52.912;6.940;2023-02-28T13:39:54;7.78;;;2.90;;
57395;SDS011;43222;52.912;6.940;2023-02-28T13:42:36;6.47;;;2.50;;
57395;SDS011;43222;52.912;6.940;2023-02-28T13:47:35;7.60;;;2.58;;
57395;SDS011;43222;52.912;6.940;2023-02-28T13:55:50;6.43;;;2.92;;
57395;SDS011;43222;52.912;6.940;2023-02-28T14:08:51;5.95;;;2.58;;
57395;SDS011;43222;52.912;6.940;2023-02-28T14:11:34;7.50;;;2.80;;
57395;SDS011;43222;52.912;6.940;2023-02-28T14:14:01;5.72;;;2.70;;
57395;SDS011;43222;52.912;6.940;2023-02-28T14:16:39;4.82;;;2.70;;
57395;SDS011;43222;52.912;6.940;2023-02-28T14:19:10;9.75;;;4.15;;
57395;SDS011;43222;52.912;6.940;2023-02-28T14:21:38;11.63;;;4.38;;
57395;SDS011;43222;52.912;6.940;2023-02-28T14:34:53;6.30;;;3.25;;
57395;SDS011;43222;52.912;6.940;2023-02-28T14:37:20;8.38;;;3.40;;
57395;SDS011;43222;52.912;6.940;2023-02-28T14:39:49;5.97;;;3.10;;
57395;SDS011;43222;52.912;6.940;2023-02-28T14:42:34;7.82;;;2.83;;
57395;SDS011;43222;52.912;6.940;2023-02-28T14:45:02;6.60;;;3.30;;
57395;SDS011;43222;52.912;6.940;2023-02-28T14:47:32;9.15;;;3.58;;
57395;SDS011;43222;52.912;6.940;2023-02-28T14:49:59;7.60;;;2.90;;
57395;SDS011;43222;52.912;6.940;2023-02-28T14:52:27;6.43;;;2.95;;
57395;SDS011;43222;52.912;6.940;2023-02-28T14:54:58;7.38;;;3.40;;
57395;SDS011;43222;52.912;6.940;2023-02-28T14:57:25;6.93;;;2.88;;
57395;SDS011;43222;52.912;6.940;2023-02-28T15:00:09;5.85;;;2.33;;
57395;SDS011;43222;52.912;6.940;2023-02-28T15:02:37;5.82;;;2.40;;
57395;SDS011;43222;52.912;6.940;2023-02-28T15:07:35;5.60;;;2.85;;
57395;SDS011;43222;52.912;6.940;2023-02-28T15:15:24;6.82;;;3.17;;
57395;SDS011;43222;52.912;6.940;2023-02-28T15:17:52;7.10;;;3.22;;
57395;SDS011;43222;52.912;6.940;2023-02-28T15:20:19;4.95;;;2.38;;
57395;SDS011;43222;52.912;6.940;2023-02-28T15:22:45;7.78;;;2.88;;
57395;SDS011;43222;52.912;6.940;2023-02-28T15:25:13;5.40;;;2.20;;
57395;SDS011;43222;52.912;6.940;2023-02-28T15:27:44;4.40;;;2.13;;
57395;SDS011;43222;52.912;6.940;2023-02-28T15:30:15;7.28;;;2.60;;
57395;SDS011;43222;52.912;6.940;2023-02-28T15:32:42;6.47;;;2.17;;
57395;SDS011;43222;52.912;6.940;2023-02-28T15:35:18;6.72;;;2.70;;
57395;SDS011;43222;52.912;6.940;2023-02-28T15:37:52;5.35;;;2.40;;
57395;SDS011;43222;52.912;6.940;2023-02-28T15:43:11;8.52;;;3.55;;
57395;SDS011;43222;52.912;6.940;2023-02-28T15:45:44;9.02;;;3.75;;
57395;SDS011;43222;52.912;6.940;2023-02-28T15:48:21;5.72;;;2.60;;
57395;SDS011;43222;52.912;6.940;2023-02-28T15:50:54;6.68;;;2.50;;
57395;SDS011;43222;52.912;6.940;2023-02-28T15:53:25;7.38;;;2.88;;
57395;SDS011;43222;52.912;6.940;2023-02-28T15:55:53;11.32;;;4.30;;
57395;SDS011;43222;52.912;6.940;2023-02-28T15:58:19;9.05;;;3.42;;
57395;SDS011;43222;52.912;6.940;2023-02-28T16:00:59;10.85;;;3.95;;
57395;SDS011;43222;52.912;6.940;2023-02-28T16:03:26;7.68;;;4.05;;
57395;SDS011;43222;52.912;6.940;2023-02-28T16:06:38;8.73;;;3.95;;
57395;SDS011;43222;52.912;6.940;2023-02-28T16:08:39;8.18;;;3.80;;
57395;SDS011;43222;52.912;6.940;2023-02-28T16:11:05;8.98;;;3.75;;
57395;SDS011;43222;52.912;6.940;2023-02-28T16:13:31;9.05;;;3.38;;
57395;SDS011;43222;52.912;6.940;2023-02-28T16:15:57;6.43;;;2.50;;
57395;SDS011;43222;52.912;6.940;2023-02-28T16:18:25;8.02;;;4.05;;
57395;SDS011;43222;52.912;6.940;2023-02-28T16:20:51;18.42;;;6.15;;
57395;SDS011;43222;52.912;6.940;2023-02-28T16:23:17;9.57;;;3.97;;
57395;SDS011;43222;52.912;6.940;2023-02-28T16:25:43;5.75;;;2.58;;
57395;SDS011;43222;52.912;6.940;2023-02-28T16:28:20;6.97;;;3.17;;
57395;SDS011;43222;52.912;6.940;2023-02-28T16:30:50;8.25;;;3.35;;
57395;SDS011;43222;52.912;6.940;2023-02-28T16:33:16;5.85;;;2.47;;
57395;SDS011;43222;52.912;6.940;2023-02-28T16:35:43;6.65;;;3.08;;
57395;SDS011;43222;52.912;6.940;2023-02-28T16:38:09;8.82;;;3.50;;
57395;SDS011;43222;52.912;6.940;2023-02-28T16:40:35;25.27;;;9.98;;
57395;SDS011;43222;52.912;6.940;2023-02-28T16:43:04;8.95;;;3.78;;
57395;SDS011;43222;52.912;6.940;2023-02-28T16:45:31;8.93;;;4.15;;
57395;SDS011;43222;52.912;6.940;2023-02-28T16:47:57;7.05;;;3.17;;
57395;SDS011;43222;52.912;6.940;2023-02-28T16:50:24;5.70;;;2.85;;
57395;SDS011;43222;52.912;6.940;2023-02-28T16:52:50;6.05;;;2.70;;
57395;SDS011;43222;52.912;6.940;2023-02-28T16:55:17;5.93;;;2.55;;
57395;SDS011;43222;52.912;6.940;2023-02-28T16:57:43;5.90;;;2.78;;
57395;SDS011;43222;52.912;6.940;2023-02-28T17:00:11;5.93;;;2.80;;
57395;SDS011;43222;52.912;6.940;2023-02-28T17:02:37;6.40;;;2.95;;
57395;SDS011;43222;52.912;6.940;2023-02-28T17:05:04;9.10;;;4.72;;
57395;SDS011;43222;52.912;6.940;2023-02-28T17:07:31;9.30;;;3.67;;
57395;SDS011;43222;52.912;6.940;2023-02-28T17:09:57;6.70;;;3.20;;
57395;SDS011;43222;52.912;6.940;2023-02-28T17:12:26;9.75;;;3.88;;
57395;SDS011;43222;52.912;6.940;2023-02-28T17:14:52;7.65;;;3.53;;